Resolution - eastern half: Past 24 Hour Conditions

 

La Grande Rivière Airport

01:00 AM EST 18 February 2018
Disclaimer

This table is a summary of hourly weather conditions for the past 24 hours.
Please note that these observations might not always be representative of weather conditions over their associated marine area.

Date / Time
(EST)
Wind(knots) Conditions Visibility(km) Pressure(kPa) Air tempC) Relative humidity(%) Dew pointC) Wind Chill
18 February 2018
1:00 W 19 gust 28 Light Snow 2 100.4 -16 81 -19 -28
0:00 WSW 7 Light Snow 16 100.3 -17 82 -19 -24
17 February 2018
23:00 W 14 gust 20 Light Snow 11 100.3 -15 80 -18 -26
22:00 W 21 gust 28 Light Snow 3 100.1 -13 82 -16 -25
21:00 SW 8 Light Snow 2 100.0 -10 87 -12 -17
20:00 S 8 Light Snow 2 100.0 -10 87 -12 -18
19:00 S 10 Light Snow 2 100.0 -11 85 -13 -18
18:00 SSE 9 Light Snow 4 100.0 -11 83 -14 -19
17:00 SSE 11 Light Snow 8 100.1 -12 81 -15 -20
16:00 SSE 12 Light Snow 2 100.1 -13 80 -16 -22
15:00 SSE 14 Light Snow 2 100.2 -14 79 -16 -23
14:00 SSE 15 Light Snow 16 100.4 -14 69 -18 -24
13:00 SSE 14 gust 20 Mostly Cloudy 24 100.5 -16 69 -20 -26
12:00 SSE 13 Mostly Cloudy 24 100.7 -17 77 -20 -28
11:00 SSE 17 Mostly Cloudy 24 100.8 -19 79 -22 -32
10:00 SSE 13 gust 19 Mostly Cloudy 24 101.0 -21 78 -24 -33
9:00 SSE 11 gust 17 Partly Cloudy 24 101.1 -23 77 -26 -35
8:00 SSE 9 gust 15 Partly Cloudy 24 101.2 -26 76 -29 -37
7:00 SSE 12 gust 17 Clear 24 101.3 -27 76 -30 -40
6:00 S 11 Clear 24 101.3 -28 76 -31 -41
5:00 S 9 Clear 24 101.4 -29 75 -32 -41
4:00 S 10 Clear 24 101.4 -29 75 -32 -41
3:00 S 10 Ice Crystals 24 101.4 -29 76 -32 -41
2:00 SSW 7 Ice Crystals 24 101.3 -28 76 -31 -39
1:00 S 9 Ice Crystals 24 101.3 -28 76 -31 -40

Zoom-in to make a selection

Map of Hudson - Hudson Bay marine weather areas Arviat Airport Baker Lake Airport Chesterfield Inlet Airport Coral Harbour Airport Rankin Inlet Airport Sanikiluaq Airport Whale Cove Airport Cape Dorset Airport Iqaluit Airport Resolution Island Wager Bay Churchill Airport Fort Severn Airport Peawanuck Airport Moosonee Airport La Grande Rivière Airport Waskaganish Airport Wemindji Airport Akulivik Airport Inukjuak Airport Ivujivik Airport Kuujjuarapik Airport Puvirnituq Airport Umiujaq Airport Kangiqsujuaq Airport Kangirsuk Airport Kuujjuaq Airport Quaqtaq Airport Tasiujaq Airport Cape Kakkiviak Kimmirut Airport Eastmain Airport Aupaluk Airport Salluit Airport Kangiqsualujjuaq Airport
Legend:
buoy Buoy
land station Land Station

Hudson - Hudson Bay Area

Another Region

What we are doing

Date modified: